createdAt,value
2018-03-25T00:01:36.803Z,5.10
2018-03-25T00:04:04.242Z,5.10
2018-03-25T00:06:31.690Z,5.10
2018-03-25T00:08:59.931Z,5.00
2018-03-25T00:11:27.389Z,5.00
2018-03-25T00:13:54.844Z,4.90
2018-03-25T00:16:22.296Z,4.70
2018-03-25T00:18:49.750Z,4.50
2018-03-25T00:21:17.205Z,4.30
2018-03-25T00:23:44.660Z,4.20
2018-03-25T00:26:12.125Z,4.30
2018-03-25T00:28:39.585Z,4.30
2018-03-25T00:31:07.037Z,4.40
2018-03-25T00:33:34.498Z,4.40
2018-03-25T00:36:01.945Z,4.40
2018-03-25T00:38:29.400Z,4.30
2018-03-25T00:40:56.850Z,4.30
2018-03-25T00:43:24.308Z,4.30
2018-03-25T00:45:51.839Z,4.30
2018-03-25T00:48:19.285Z,4.30
2018-03-25T00:50:46.749Z,4.30
2018-03-25T00:53:14.212Z,4.20
2018-03-25T00:55:41.766Z,4.10
2018-03-25T00:58:09.232Z,4.00
2018-03-25T01:00:36.676Z,4.00
2018-03-25T01:03:04.130Z,4.00
2018-03-25T01:05:31.582Z,4.00
2018-03-25T01:07:59.041Z,4.10
2018-03-25T01:10:26.608Z,4.10
2018-03-25T01:12:54.057Z,4.00
2018-03-25T01:15:21.536Z,4.00
2018-03-25T01:17:48.988Z,4.00
2018-03-25T01:20:16.475Z,4.10
2018-03-25T01:22:44.685Z,4.10
2018-03-25T01:25:12.906Z,4.10
2018-03-25T01:27:40.365Z,4.00
2018-03-25T01:30:07.821Z,4.00
2018-03-25T01:32:36.116Z,3.90
2018-03-25T01:35:03.529Z,3.80
2018-03-25T01:37:30.989Z,3.80
2018-03-25T01:39:58.438Z,3.80
2018-03-25T01:42:25.896Z,3.80
2018-03-25T01:44:53.353Z,3.80
2018-03-25T01:47:20.809Z,3.80
2018-03-25T01:49:48.270Z,3.80
2018-03-25T01:52:15.728Z,3.80
2018-03-25T01:54:43.181Z,3.80
2018-03-25T01:57:10.636Z,3.80
2018-03-25T01:59:38.098Z,3.80
2018-03-25T02:02:05.553Z,3.70
2018-03-25T02:04:33.027Z,3.80
2018-03-25T02:07:00.473Z,3.70
2018-03-25T02:09:27.945Z,3.70
2018-03-25T02:11:55.575Z,3.70
2018-03-25T02:14:23.032Z,3.70
2018-03-25T02:16:50.482Z,3.70
2018-03-25T02:19:18.049Z,3.60
2018-03-25T02:21:45.485Z,3.60
2018-03-25T02:24:12.941Z,3.60
2018-03-25T02:26:40.394Z,3.50
2018-03-25T02:29:08.626Z,3.30
2018-03-25T02:31:36.078Z,3.30
2018-03-25T02:34:03.538Z,3.10
2018-03-25T02:36:31.007Z,3.10
2018-03-25T02:38:58.473Z,3.20
2018-03-25T02:41:25.921Z,3.20
2018-03-25T02:43:53.378Z,3.30
2018-03-25T02:46:20.842Z,3.30
2018-03-25T02:48:48.310Z,3.20
2018-03-25T02:51:16.523Z,3.10
2018-03-25T02:53:43.985Z,3.10
2018-03-25T02:56:11.434Z,3.20
2018-03-25T02:58:38.894Z,3.20
2018-03-25T03:01:06.344Z,3.20
2018-03-25T03:03:33.828Z,3.20
2018-03-25T03:06:01.278Z,3.20
2018-03-25T03:08:28.737Z,3.20
2018-03-25T03:10:56.200Z,3.20
2018-03-25T03:13:23.649Z,3.10
2018-03-25T03:15:51.104Z,3.00
2018-03-25T03:18:18.561Z,2.90
2018-03-25T03:20:46.026Z,2.80
2018-03-25T03:23:13.474Z,2.70
2018-03-25T03:25:40.937Z,2.70
2018-03-25T03:28:08.393Z,2.70
2018-03-25T03:30:35.849Z,2.80
2018-03-25T03:33:04.066Z,2.70
2018-03-25T03:35:32.297Z,2.80
2018-03-25T03:37:59.753Z,2.80
2018-03-25T03:40:27.221Z,2.80
2018-03-25T03:42:54.673Z,2.90
2018-03-25T03:45:22.136Z,2.90
2018-03-25T03:47:49.586Z,2.90
2018-03-25T03:50:17.809Z,2.90
2018-03-25T03:52:45.261Z,2.80
2018-03-25T03:55:13.490Z,2.70
2018-03-25T03:57:41.507Z,2.70
2018-03-25T04:00:09.730Z,2.70
2018-03-25T04:02:37.191Z,2.70
2018-03-25T04:05:04.649Z,2.70
2018-03-25T04:07:32.104Z,2.80
2018-03-25T04:09:59.566Z,2.80
2018-03-25T04:12:27.018Z,2.70
2018-03-25T04:14:54.491Z,2.50
2018-03-25T04:17:21.998Z,2.50
2018-03-25T04:19:49.462Z,2.50
2018-03-25T04:22:17.014Z,2.50
2018-03-25T04:24:44.483Z,2.60
2018-03-25T04:27:11.929Z,2.50
2018-03-25T04:29:39.394Z,2.50
2018-03-25T04:32:06.844Z,2.40
2018-03-25T04:34:34.305Z,2.40
2018-03-25T04:37:01.856Z,2.30
2018-03-25T04:39:29.314Z,2.30
2018-03-25T04:41:56.769Z,2.30
2018-03-25T04:44:24.231Z,2.30
2018-03-25T04:46:51.678Z,2.40
2018-03-25T04:49:19.140Z,2.40
2018-03-25T04:51:46.593Z,2.40
2018-03-25T04:54:14.049Z,2.50
2018-03-25T04:56:41.505Z,2.50
2018-03-25T04:59:08.965Z,2.40
2018-03-25T05:01:36.425Z,2.50
2018-03-25T05:04:03.877Z,2.50
2018-03-25T05:06:31.351Z,2.50
2018-03-25T05:08:58.801Z,2.50
2018-03-25T05:11:26.263Z,2.50
2018-03-25T05:13:53.731Z,2.50
2018-03-25T05:16:21.190Z,2.50
2018-03-25T05:18:48.647Z,2.50
2018-03-25T05:21:16.097Z,2.50
2018-03-25T05:23:43.545Z,2.40
2018-03-25T05:26:11.007Z,2.40
2018-03-25T05:28:38.457Z,2.30
2018-03-25T05:31:05.914Z,2.20
2018-03-25T05:33:33.368Z,2.10
2018-03-25T05:36:00.829Z,2.20
2018-03-25T05:38:28.277Z,2.30
2018-03-25T05:40:55.750Z,2.30
2018-03-25T05:43:23.197Z,2.40
2018-03-25T05:45:50.661Z,2.50
2018-03-25T05:48:18.111Z,2.50
2018-03-25T05:50:45.569Z,2.60
2018-03-25T05:53:13.018Z,2.60
2018-03-25T05:55:40.473Z,2.70
2018-03-25T05:58:07.940Z,2.80
2018-03-25T06:00:35.397Z,2.80
2018-03-25T06:03:02.841Z,2.90
2018-03-25T06:05:30.309Z,2.90
2018-03-25T06:07:57.758Z,2.90
2018-03-25T06:10:25.213Z,2.90
2018-03-25T06:12:52.673Z,2.90
2018-03-25T06:15:20.898Z,2.90
2018-03-25T06:17:55.023Z,2.90
2018-03-25T06:20:22.485Z,2.90
2018-03-25T06:22:49.944Z,3.00
2018-03-25T06:25:17.406Z,3.10
2018-03-25T06:27:44.856Z,3.10
2018-03-25T06:30:12.427Z,3.20
2018-03-25T06:32:39.864Z,3.30
2018-03-25T06:35:07.351Z,3.40
2018-03-25T06:37:34.805Z,3.40
2018-03-25T06:40:02.265Z,3.50
2018-03-25T06:42:29.725Z,3.60
2018-03-25T06:44:57.173Z,3.60
2018-03-25T06:47:24.635Z,3.70
2018-03-25T06:49:52.086Z,3.80
2018-03-25T06:52:19.569Z,3.90
2018-03-25T06:54:47.009Z,4.00
2018-03-25T06:57:15.241Z,4.20
2018-03-25T06:59:43.469Z,4.20
2018-03-25T07:02:10.925Z,4.20
2018-03-25T07:04:38.389Z,4.30
2018-03-25T07:07:05.846Z,4.30
2018-03-25T07:09:33.297Z,4.40
2018-03-25T07:12:00.753Z,4.50
2018-03-25T07:14:28.280Z,4.60
2018-03-25T07:16:56.450Z,4.80
2018-03-25T07:19:23.906Z,4.80
2018-03-25T07:21:51.363Z,4.90
2018-03-25T07:24:18.826Z,5.00
2018-03-25T07:26:46.328Z,5.00
2018-03-25T07:29:13.789Z,5.10
2018-03-25T07:31:41.245Z,5.20
2018-03-25T07:34:08.714Z,5.30
2018-03-25T07:36:36.949Z,5.40
2018-03-25T07:39:04.398Z,5.40
2018-03-25T07:41:31.901Z,5.50
2018-03-25T07:43:59.346Z,5.60
2018-03-25T07:46:26.819Z,5.70
2018-03-25T07:48:55.039Z,5.90
2018-03-25T07:51:22.501Z,5.90
2018-03-25T07:53:49.946Z,6.00
2018-03-25T07:56:17.406Z,6.10
2018-03-25T07:58:44.856Z,6.20
2018-03-25T08:01:12.316Z,6.30
2018-03-25T08:03:39.769Z,6.50
2018-03-25T08:06:07.502Z,6.60
2018-03-25T08:08:35.734Z,6.80
2018-03-25T08:11:03.189Z,6.80
2018-03-25T08:13:30.662Z,6.90
2018-03-25T08:15:58.108Z,7.00
2018-03-25T08:18:25.566Z,7.20
2018-03-25T08:20:53.024Z,7.30
2018-03-25T08:23:20.481Z,7.40
2018-03-25T08:25:47.929Z,7.40
2018-03-25T08:28:15.433Z,7.50
2018-03-25T08:30:42.883Z,7.50
2018-03-25T08:33:11.110Z,7.70
2018-03-25T08:35:38.566Z,7.70
2018-03-25T08:38:06.048Z,7.80
2018-03-25T08:40:33.501Z,7.90
2018-03-25T08:43:00.953Z,8.10
2018-03-25T08:45:28.422Z,8.20
2018-03-25T08:47:55.898Z,8.40
2018-03-25T08:50:23.363Z,8.60
2018-03-25T08:52:50.820Z,8.70
2018-03-25T08:55:18.270Z,8.80
2018-03-25T08:57:45.738Z,8.90
2018-03-25T09:00:13.212Z,9.00
2018-03-25T09:02:40.703Z,9.10
2018-03-25T09:05:08.170Z,9.20
2018-03-25T09:07:35.638Z,9.30
2018-03-25T09:10:03.101Z,9.40
2018-03-25T09:12:30.560Z,9.50
2018-03-25T09:14:58.018Z,9.60
2018-03-25T09:17:26.250Z,9.70
2018-03-25T09:19:53.709Z,9.70
2018-03-25T09:22:21.173Z,9.70
2018-03-25T09:24:48.634Z,9.80
2018-03-25T09:27:16.097Z,9.90
2018-03-25T09:29:43.568Z,10.00
2018-03-25T09:32:11.818Z,10.20
2018-03-25T09:34:39.279Z,10.10
2018-03-25T09:37:06.757Z,10.20
2018-03-25T09:39:34.209Z,10.20
2018-03-25T09:42:02.438Z,10.20
2018-03-25T09:44:29.905Z,10.20
2018-03-25T09:46:57.438Z,10.20
2018-03-25T09:49:24.894Z,10.30
2018-03-25T09:51:52.357Z,10.20
2018-03-25T09:54:19.828Z,10.30
2018-03-25T09:56:47.322Z,10.30
2018-03-25T09:59:14.756Z,10.40
2018-03-25T10:01:47.958Z,10.50
2018-03-25T10:04:15.436Z,10.50
2018-03-25T10:06:43.660Z,10.70
2018-03-25T10:09:11.122Z,10.70
2018-03-25T10:11:38.585Z,10.80
2018-03-25T10:14:06.058Z,10.90
2018-03-25T10:16:41.361Z,10.90
2018-03-25T10:19:09.273Z,10.90
2018-03-25T10:21:36.741Z,11.00
2018-03-25T10:24:04.216Z,11.00
2018-03-25T10:26:32.498Z,11.10
2018-03-25T10:28:59.961Z,11.10
2018-03-25T10:31:27.426Z,11.10
2018-03-25T10:33:54.904Z,11.20
2018-03-25T10:36:22.366Z,11.40
2018-03-25T10:38:49.855Z,11.50
2018-03-25T10:41:17.309Z,11.80
2018-03-25T10:43:44.777Z,12.00
2018-03-25T10:46:13.037Z,12.20
2018-03-25T10:48:40.511Z,12.10
2018-03-25T10:51:08.732Z,12.50
2018-03-25T10:53:36.205Z,12.50
2018-03-25T10:56:03.663Z,12.70
2018-03-25T10:58:31.130Z,12.70
2018-03-25T11:00:58.606Z,12.80
2018-03-25T11:03:26.846Z,12.90
2018-03-25T11:05:54.305Z,12.90
2018-03-25T11:08:21.781Z,13.00
2018-03-25T11:10:49.233Z,13.10
2018-03-25T11:13:16.715Z,13.10
2018-03-25T11:15:44.951Z,13.00
2018-03-25T11:18:12.418Z,13.00
2018-03-25T11:20:39.877Z,12.90
2018-03-25T11:23:07.344Z,12.90
2018-03-25T11:25:35.572Z,12.70
2018-03-25T11:28:03.042Z,12.70
2018-03-25T11:30:30.518Z,12.60
2018-03-25T11:32:57.978Z,12.50
2018-03-25T11:35:25.469Z,12.50
2018-03-25T11:37:52.946Z,12.50
2018-03-25T11:40:20.422Z,12.50
2018-03-25T11:42:47.889Z,12.50
2018-03-25T11:45:16.140Z,12.60
2018-03-25T11:47:43.607Z,12.60
2018-03-25T11:50:11.306Z,12.60
2018-03-25T11:52:39.206Z,12.70
2018-03-25T11:55:06.674Z,12.80
2018-03-25T11:57:34.130Z,12.80
2018-03-25T12:00:01.599Z,12.80
2018-03-25T12:02:29.066Z,12.90
2018-03-25T12:04:56.540Z,12.80
2018-03-25T12:07:23.993Z,12.90
2018-03-25T12:09:51.466Z,12.90
2018-03-25T12:12:18.926Z,12.90
2018-03-25T12:14:46.390Z,12.90
2018-03-25T12:17:14.618Z,13.00
2018-03-25T12:19:42.114Z,12.90
2018-03-25T12:22:09.574Z,13.00
2018-03-25T12:24:37.045Z,13.10
2018-03-25T12:27:05.261Z,13.10
2018-03-25T12:29:32.734Z,13.10
2018-03-25T12:32:00.196Z,13.00
2018-03-25T12:34:27.664Z,13.00
2018-03-25T12:36:55.128Z,12.90
2018-03-25T12:39:22.594Z,13.00
2018-03-25T12:41:50.824Z,13.00
2018-03-25T12:44:18.284Z,13.00
2018-03-25T12:46:45.737Z,12.90
2018-03-25T12:49:13.211Z,12.90
2018-03-25T12:51:40.662Z,12.90
2018-03-25T12:54:08.130Z,13.00
2018-03-25T12:56:35.597Z,13.10
2018-03-25T12:59:03.066Z,13.20
2018-03-25T13:01:31.291Z,13.50
2018-03-25T13:03:58.754Z,13.50
2018-03-25T13:06:26.217Z,13.60
2018-03-25T13:08:53.675Z,13.70
2018-03-25T13:11:21.146Z,13.70
2018-03-25T13:13:48.628Z,13.80
2018-03-25T13:16:16.093Z,13.70
2018-03-25T13:18:43.561Z,13.60
2018-03-25T13:21:11.038Z,13.60
2018-03-25T13:23:38.494Z,13.60
2018-03-25T13:26:05.960Z,13.60
2018-03-25T13:28:33.414Z,13.60
2018-03-25T13:31:00.889Z,13.70
2018-03-25T13:33:28.342Z,13.80
2018-03-25T13:35:55.806Z,13.80
2018-03-25T13:38:23.261Z,13.80
2018-03-25T13:40:50.731Z,13.80
2018-03-25T13:43:18.186Z,13.90
2018-03-25T13:45:45.678Z,14.00
2018-03-25T13:48:13.153Z,14.10
2018-03-25T13:50:40.634Z,14.30
2018-03-25T13:53:08.086Z,14.40
2018-03-25T13:55:35.553Z,14.50
2018-03-25T13:58:03.022Z,14.60
2018-03-25T14:00:30.493Z,14.80
2018-03-25T14:02:57.948Z,14.80
2018-03-25T14:05:25.429Z,14.80
2018-03-25T14:07:52.890Z,14.80
2018-03-25T14:10:20.352Z,14.90
2018-03-25T14:12:47.841Z,15.00
2018-03-25T14:15:15.310Z,15.10
2018-03-25T14:17:42.762Z,15.10
2018-03-25T14:20:10.243Z,15.10
2018-03-25T14:22:37.705Z,15.10
2018-03-25T14:25:05.938Z,15.10
2018-03-25T14:27:33.398Z,15.10
2018-03-25T14:30:01.700Z,15.60
2018-03-25T14:32:29.094Z,15.50
2018-03-25T14:34:56.557Z,15.70
2018-03-25T14:37:24.075Z,16.00
2018-03-25T14:39:51.504Z,16.00
2018-03-25T14:42:18.998Z,16.00
2018-03-25T14:44:46.426Z,16.00
2018-03-25T14:47:13.895Z,15.90
2018-03-25T14:49:41.362Z,15.90
2018-03-25T14:52:08.834Z,16.10
2018-03-25T14:54:37.050Z,16.60
2018-03-25T14:57:04.525Z,16.60
2018-03-25T14:59:31.990Z,16.70
2018-03-25T15:01:59.467Z,17.10
2018-03-25T15:04:26.917Z,18.00
2018-03-25T15:06:54.387Z,18.90
2018-03-25T15:09:22.627Z,19.60
2018-03-25T15:11:50.089Z,19.50
2018-03-25T15:14:17.545Z,19.50
2018-03-25T15:16:45.036Z,19.30
2018-03-25T15:19:13.274Z,19.60
2018-03-25T15:21:40.744Z,19.60
2018-03-25T15:24:08.199Z,19.50
2018-03-25T15:26:36.470Z,20.30
2018-03-25T15:29:03.918Z,20.30
2018-03-25T15:31:31.381Z,20.60
2018-03-25T15:33:58.843Z,21.00
2018-03-25T15:36:26.309Z,21.20
2018-03-25T15:38:53.769Z,21.50
2018-03-25T15:41:21.243Z,21.70
2018-03-25T15:43:49.470Z,21.60
2018-03-25T15:46:16.949Z,21.60
2018-03-25T15:48:44.398Z,21.20
2018-03-25T15:51:11.870Z,20.80
2018-03-25T15:53:40.114Z,20.70
2018-03-25T15:56:07.586Z,20.70
2018-03-25T15:58:35.041Z,20.50
2018-03-25T16:01:02.504Z,20.10
2018-03-25T16:03:29.966Z,19.50
2018-03-25T16:05:57.422Z,18.90
2018-03-25T16:08:24.978Z,18.30
2018-03-25T16:10:52.434Z,17.70
2018-03-25T16:13:19.898Z,17.10
2018-03-25T16:15:47.355Z,16.70
2018-03-25T16:18:14.828Z,16.40
2018-03-25T16:20:42.281Z,16.20
2018-03-25T16:23:09.876Z,15.90
2018-03-25T16:25:37.346Z,15.60
2018-03-25T16:28:04.814Z,15.40
2018-03-25T16:30:32.260Z,15.20
2018-03-25T16:32:59.740Z,15.00
2018-03-25T16:35:27.197Z,14.90
2018-03-25T16:37:54.657Z,14.70
2018-03-25T16:40:22.114Z,14.60
2018-03-25T16:42:49.590Z,14.50
2018-03-25T16:45:17.818Z,14.30
2018-03-25T16:47:45.310Z,14.20
2018-03-25T16:50:12.746Z,14.10
2018-03-25T16:52:40.231Z,14.00
2018-03-25T16:55:08.465Z,13.80
2018-03-25T16:57:35.937Z,13.80
2018-03-25T17:00:03.396Z,13.80
2018-03-25T17:02:30.865Z,13.70
2018-03-25T17:04:58.321Z,13.60
2018-03-25T17:07:25.801Z,13.60
2018-03-25T17:09:54.046Z,13.40
2018-03-25T17:12:21.517Z,13.40
2018-03-25T17:14:48.988Z,13.40
2018-03-25T17:17:17.237Z,13.20
2018-03-25T17:19:44.702Z,13.20
2018-03-25T17:22:12.177Z,13.10
2018-03-25T17:24:40.403Z,13.00
2018-03-25T17:27:07.925Z,13.00
2018-03-25T17:29:35.339Z,12.90
2018-03-25T17:32:02.807Z,12.90
2018-03-25T17:34:30.253Z,12.80
2018-03-25T17:36:57.718Z,12.70
2018-03-25T17:39:25.190Z,12.70
2018-03-25T17:41:53.461Z,12.60
2018-03-25T17:44:20.895Z,12.60
2018-03-25T17:46:48.355Z,12.50
2018-03-25T17:49:15.819Z,12.50
2018-03-25T17:51:43.289Z,12.40
2018-03-25T17:54:11.522Z,12.30
2018-03-25T17:56:39.742Z,12.20
2018-03-25T17:59:07.982Z,12.20
2018-03-25T18:01:35.442Z,12.10
2018-03-25T18:04:02.906Z,12.10
2018-03-25T18:06:30.368Z,12.00
2018-03-25T18:08:57.826Z,11.90
2018-03-25T18:11:25.285Z,11.90
2018-03-25T18:13:52.740Z,11.80
2018-03-25T18:16:20.969Z,11.70
2018-03-25T18:18:48.441Z,11.70
2018-03-25T18:21:15.905Z,11.60
2018-03-25T18:23:43.384Z,11.60
2018-03-25T18:26:10.887Z,11.50
2018-03-25T18:28:38.339Z,11.50
2018-03-25T18:31:05.795Z,11.50
2018-03-25T18:33:33.263Z,11.50
2018-03-25T18:36:00.739Z,11.40
2018-03-25T18:38:28.206Z,11.40
2018-03-25T18:40:55.666Z,11.40
2018-03-25T18:43:23.134Z,11.30
2018-03-25T18:45:50.602Z,11.20
2018-03-25T18:48:18.840Z,11.10
2018-03-25T18:50:46.304Z,11.00
2018-03-25T18:53:13.766Z,11.00
2018-03-25T18:55:41.221Z,10.80
2018-03-25T18:58:08.689Z,10.70
2018-03-25T19:00:36.141Z,10.60
2018-03-25T19:03:03.610Z,10.50
2018-03-25T19:05:31.060Z,10.40
2018-03-25T19:07:58.525Z,10.30
2018-03-25T19:10:26.750Z,10.20
2018-03-25T19:12:54.205Z,10.20
2018-03-25T19:15:21.680Z,10.20
2018-03-25T19:17:49.134Z,10.10
2018-03-25T19:20:16.605Z,10.00
2018-03-25T19:22:44.124Z,9.90
2018-03-25T19:25:11.730Z,9.80
2018-03-25T19:27:39.129Z,9.70
2018-03-25T19:30:06.598Z,9.70
2018-03-25T19:32:34.051Z,9.60
2018-03-25T19:35:01.529Z,9.50
2018-03-25T19:37:28.985Z,9.40
2018-03-25T19:39:56.450Z,9.40
2018-03-25T19:42:23.898Z,9.40
2018-03-25T19:44:51.361Z,9.40
2018-03-25T19:47:18.811Z,9.40
2018-03-25T19:49:46.350Z,9.40
2018-03-25T19:52:13.790Z,9.40
2018-03-25T19:54:42.105Z,9.40
2018-03-25T19:57:09.565Z,9.40
2018-03-25T19:59:37.030Z,9.30
2018-03-25T20:02:04.488Z,9.30
2018-03-25T20:04:31.977Z,9.20
2018-03-25T20:07:00.214Z,9.20
2018-03-25T20:09:27.661Z,9.10
2018-03-25T20:11:55.115Z,9.10
2018-03-25T20:14:22.604Z,9.10
2018-03-25T20:16:50.031Z,9.10
2018-03-25T20:19:17.491Z,9.10
2018-03-25T20:21:44.955Z,9.10
2018-03-25T20:24:12.414Z,9.00
2018-03-25T20:26:39.863Z,9.00
2018-03-25T20:29:07.321Z,9.00
2018-03-25T20:31:34.766Z,9.00
2018-03-25T20:34:02.230Z,9.00
2018-03-25T20:36:29.690Z,9.00
2018-03-25T20:38:57.172Z,9.00
2018-03-25T20:41:24.671Z,9.00
2018-03-25T20:43:52.131Z,8.90
2018-03-25T20:46:19.577Z,8.90
2018-03-25T20:48:47.034Z,9.00
2018-03-25T20:51:14.505Z,9.10
2018-03-25T20:53:41.982Z,9.10
2018-03-25T20:56:09.446Z,9.20
2018-03-25T20:58:36.898Z,9.20
2018-03-25T21:01:04.360Z,9.20
2018-03-25T21:03:31.922Z,9.20
2018-03-25T21:05:59.376Z,9.20
2018-03-25T21:08:27.590Z,9.20
2018-03-25T21:10:55.814Z,9.10
2018-03-25T21:13:23.268Z,9.10
2018-03-25T21:15:50.730Z,9.10
2018-03-25T21:18:18.190Z,9.10
2018-03-25T21:20:45.637Z,9.00
2018-03-25T21:23:13.092Z,9.00
2018-03-25T21:25:40.549Z,9.00
2018-03-25T21:28:07.997Z,8.90
2018-03-25T21:30:35.465Z,8.90
2018-03-25T21:33:02.904Z,8.90
2018-03-25T21:35:30.369Z,8.90
2018-03-25T21:37:57.821Z,8.90
2018-03-25T21:40:25.282Z,8.90
2018-03-25T21:42:53.498Z,8.80
2018-03-25T21:45:20.959Z,8.80
2018-03-25T21:47:48.404Z,8.80
2018-03-25T21:50:15.896Z,8.80
2018-03-25T21:52:43.349Z,8.70
2018-03-25T21:55:10.805Z,8.70
2018-03-25T21:57:38.262Z,8.70
2018-03-25T22:00:05.770Z,8.60
2018-03-25T22:02:33.213Z,8.60
2018-03-25T22:05:00.697Z,8.50
2018-03-25T22:07:28.181Z,8.50
2018-03-25T22:09:56.414Z,8.50
2018-03-25T22:12:23.869Z,8.50
2018-03-25T22:14:51.316Z,8.50
2018-03-25T22:17:18.780Z,8.50
2018-03-25T22:19:46.230Z,8.40
2018-03-25T22:22:13.695Z,8.40
2018-03-25T22:24:41.156Z,8.40
2018-03-25T22:27:08.608Z,8.40
2018-03-25T22:29:36.055Z,8.30
2018-03-25T22:32:03.513Z,8.30
2018-03-25T22:34:30.975Z,8.20
2018-03-25T22:36:58.433Z,8.20
2018-03-25T22:39:25.885Z,8.10
2018-03-25T22:41:53.403Z,8.10
2018-03-25T22:44:20.806Z,8.10
2018-03-25T22:46:48.261Z,8.00
2018-03-25T22:49:15.714Z,8.00
2018-03-25T22:51:43.187Z,7.90
2018-03-25T22:54:10.638Z,7.90
2018-03-25T22:56:38.109Z,7.80
2018-03-25T22:59:05.569Z,7.80
2018-03-25T23:01:33.796Z,7.70
2018-03-25T23:04:01.250Z,7.70
2018-03-25T23:06:28.710Z,7.70
2018-03-25T23:08:56.165Z,7.70
2018-03-25T23:11:23.626Z,7.60
2018-03-25T23:13:51.075Z,7.60
2018-03-25T23:16:18.529Z,7.50
2018-03-25T23:18:45.980Z,7.50
2018-03-25T23:21:13.438Z,7.40
2018-03-25T23:23:40.894Z,7.40
2018-03-25T23:26:08.354Z,7.40
2018-03-25T23:28:35.809Z,7.40
2018-03-25T23:31:03.269Z,7.30
2018-03-25T23:33:30.720Z,7.30
2018-03-25T23:35:58.183Z,7.30
2018-03-25T23:38:25.639Z,7.30
2018-03-25T23:40:53.097Z,7.20
2018-03-25T23:43:20.558Z,7.20
2018-03-25T23:45:48.005Z,7.20
2018-03-25T23:48:15.468Z,7.10
2018-03-25T23:50:43.018Z,7.00
2018-03-25T23:53:10.477Z,6.90
2018-03-25T23:55:37.936Z,6.90
2018-03-25T23:58:05.393Z,6.80
